sensor_id;sensor_type;location;lat;lon;timestamp;P1;durP1;ratioP1;P2;durP2;ratioP2
28188;SDS011;15471;51.166;4.470;2023-03-01T00:01:29;0.40;;;0.40;;
28188;SDS011;15471;51.166;4.470;2023-03-01T00:03:56;0.40;;;0.40;;
28188;SDS011;15471;51.166;4.470;2023-03-01T00:06:23;0.38;;;0.38;;
28188;SDS011;15471;51.166;4.470;2023-03-01T00:08:49;0.40;;;0.40;;
28188;SDS011;15471;51.166;4.470;2023-03-01T00:11:17;0.40;;;0.40;;
28188;SDS011;15471;51.166;4.470;2023-03-01T00:16:15;0.40;;;0.40;;
28188;SDS011;15471;51.166;4.470;2023-03-01T00:18:45;0.50;;;0.50;;
28188;SDS011;15471;51.166;4.470;2023-03-01T00:21:11;0.40;;;0.40;;
28188;SDS011;15471;51.166;4.470;2023-03-01T00:23:38;0.40;;;0.40;;
28188;SDS011;15471;51.166;4.470;2023-03-01T00:26:08;0.40;;;0.40;;
28188;SDS011;15471;51.166;4.470;2023-03-01T00:28:38;0.40;;;0.40;;
28188;SDS011;15471;51.166;4.470;2023-03-01T00:33:37;0.40;;;0.40;;
28188;SDS011;15471;51.166;4.470;2023-03-01T00:36:04;0.40;;;0.40;;
28188;SDS011;15471;51.166;4.470;2023-03-01T00:38:30;0.35;;;0.35;;
28188;SDS011;15471;51.166;4.470;2023-03-01T00:41:07;0.40;;;0.40;;
28188;SDS011;15471;51.166;4.470;2023-03-01T00:43:34;0.40;;;0.40;;
28188;SDS011;15471;51.166;4.470;2023-03-01T00:46:02;0.40;;;0.40;;
28188;SDS011;15471;51.166;4.470;2023-03-01T00:48:29;0.40;;;0.40;;
28188;SDS011;15471;51.166;4.470;2023-03-01T00:50:55;0.40;;;0.40;;
28188;SDS011;15471;51.166;4.470;2023-03-01T00:53:21;0.40;;;0.40;;
28188;SDS011;15471;51.166;4.470;2023-03-01T00:55:47;0.40;;;0.40;;
28188;SDS011;15471;51.166;4.470;2023-03-01T00:58:13;0.40;;;0.40;;
28188;SDS011;15471;51.166;4.470;2023-03-01T01:00:38;0.40;;;0.40;;
28188;SDS011;15471;51.166;4.470;2023-03-01T01:03:04;0.40;;;0.40;;
28188;SDS011;15471;51.166;4.470;2023-03-01T01:05:30;0.40;;;0.40;;
28188;SDS011;15471;51.166;4.470;2023-03-01T01:07:56;0.40;;;0.40;;
28188;SDS011;15471;51.166;4.470;2023-03-01T01:10:21;0.40;;;0.40;;
28188;SDS011;15471;51.166;4.470;2023-03-01T01:12:47;0.40;;;0.40;;
28188;SDS011;15471;51.166;4.470;2023-03-01T01:15:13;0.40;;;0.40;;
28188;SDS011;15471;51.166;4.470;2023-03-01T01:17:41;0.50;;;0.50;;
28188;SDS011;15471;51.166;4.470;2023-03-01T01:20:08;0.40;;;0.40;;
28188;SDS011;15471;51.166;4.470;2023-03-01T01:22:35;0.40;;;0.40;;
28188;SDS011;15471;51.166;4.470;2023-03-01T01:25:01;0.50;;;0.50;;
28188;SDS011;15471;51.166;4.470;2023-03-01T01:27:26;0.40;;;0.40;;
28188;SDS011;15471;51.166;4.470;2023-03-01T01:29:52;0.47;;;0.47;;
28188;SDS011;15471;51.166;4.470;2023-03-01T01:32:18;0.50;;;0.50;;
28188;SDS011;15471;51.166;4.470;2023-03-01T01:34:44;0.40;;;0.40;;
28188;SDS011;15471;51.166;4.470;2023-03-01T01:37:11;0.50;;;0.50;;
28188;SDS011;15471;51.166;4.470;2023-03-01T01:39:37;0.40;;;0.40;;
28188;SDS011;15471;51.166;4.470;2023-03-01T01:42:03;0.40;;;0.40;;
28188;SDS011;15471;51.166;4.470;2023-03-01T01:44:29;0.40;;;0.40;;
28188;SDS011;15471;51.166;4.470;2023-03-01T01:46:59;0.40;;;0.40;;
28188;SDS011;15471;51.166;4.470;2023-03-01T01:49:31;0.40;;;0.40;;
28188;SDS011;15471;51.166;4.470;2023-03-01T01:55:13;0.50;;;0.50;;
28188;SDS011;15471;51.166;4.470;2023-03-01T01:57:38;0.40;;;0.40;;
28188;SDS011;15471;51.166;4.470;2023-03-01T02:00:08;0.40;;;0.40;;
28188;SDS011;15471;51.166;4.470;2023-03-01T02:02:39;0.40;;;0.40;;
28188;SDS011;15471;51.166;4.470;2023-03-01T02:05:20;0.50;;;0.50;;
28188;SDS011;15471;51.166;4.470;2023-03-01T02:07:51;0.40;;;0.40;;
28188;SDS011;15471;51.166;4.470;2023-03-01T02:10:19;0.50;;;0.50;;
28188;SDS011;15471;51.166;4.470;2023-03-01T02:12:48;0.50;;;0.50;;
28188;SDS011;15471;51.166;4.470;2023-03-01T02:15:14;0.45;;;0.45;;
28188;SDS011;15471;51.166;4.470;2023-03-01T02:17:41;0.50;;;0.50;;
28188;SDS011;15471;51.166;4.470;2023-03-01T02:22:42;0.50;;;0.50;;
28188;SDS011;15471;51.166;4.470;2023-03-01T02:30:16;0.50;;;0.50;;
28188;SDS011;15471;51.166;4.470;2023-03-01T02:32:43;0.40;;;0.40;;
28188;SDS011;15471;51.166;4.470;2023-03-01T02:35:11;0.50;;;0.50;;
28188;SDS011;15471;51.166;4.470;2023-03-01T02:37:39;0.40;;;0.40;;
28188;SDS011;15471;51.166;4.470;2023-03-01T02:40:08;0.50;;;0.50;;
28188;SDS011;15471;51.166;4.470;2023-03-01T02:42:40;0.50;;;0.50;;
28188;SDS011;15471;51.166;4.470;2023-03-01T02:45:19;0.50;;;0.50;;
28188;SDS011;15471;51.166;4.470;2023-03-01T02:47:46;0.50;;;0.50;;
28188;SDS011;15471;51.166;4.470;2023-03-01T02:50:19;0.50;;;0.50;;
28188;SDS011;15471;51.166;4.470;2023-03-01T02:53:08;0.50;;;0.50;;
28188;SDS011;15471;51.166;4.470;2023-03-01T02:55:46;0.50;;;0.50;;
28188;SDS011;15471;51.166;4.470;2023-03-01T02:58:12;0.40;;;0.40;;
28188;SDS011;15471;51.166;4.470;2023-03-01T03:00:40;0.43;;;0.43;;
28188;SDS011;15471;51.166;4.470;2023-03-01T03:03:13;0.40;;;0.40;;
28188;SDS011;15471;51.166;4.470;2023-03-01T03:05:41;0.50;;;0.50;;
28188;SDS011;15471;51.166;4.470;2023-03-01T03:08:07;0.50;;;0.50;;
28188;SDS011;15471;51.166;4.470;2023-03-01T03:10:36;0.50;;;0.50;;
28188;SDS011;15471;51.166;4.470;2023-03-01T03:13:06;0.40;;;0.40;;
28188;SDS011;15471;51.166;4.470;2023-03-01T03:15:33;0.50;;;0.50;;
28188;SDS011;15471;51.166;4.470;2023-03-01T03:18:02;0.40;;;0.40;;
28188;SDS011;15471;51.166;4.470;2023-03-01T03:20:30;0.47;;;0.47;;
28188;SDS011;15471;51.166;4.470;2023-03-01T03:22:57;0.40;;;0.40;;
28188;SDS011;15471;51.166;4.470;2023-03-01T03:25:24;0.40;;;0.40;;
28188;SDS011;15471;51.166;4.470;2023-03-01T03:27:51;0.40;;;0.40;;
28188;SDS011;15471;51.166;4.470;2023-03-01T03:30:22;0.43;;;0.43;;
28188;SDS011;15471;51.166;4.470;2023-03-01T03:32:56;0.50;;;0.50;;
28188;SDS011;15471;51.166;4.470;2023-03-01T03:35:24;0.43;;;0.43;;
28188;SDS011;15471;51.166;4.470;2023-03-01T03:37:53;0.50;;;0.50;;
28188;SDS011;15471;51.166;4.470;2023-03-01T03:40:49;0.50;;;0.50;;
28188;SDS011;15471;51.166;4.470;2023-03-01T03:43:28;0.50;;;0.50;;
28188;SDS011;15471;51.166;4.470;2023-03-01T03:45:54;0.40;;;0.40;;
28188;SDS011;15471;51.166;4.470;2023-03-01T03:48:22;0.40;;;0.40;;
28188;SDS011;15471;51.166;4.470;2023-03-01T03:50:50;0.50;;;0.50;;
28188;SDS011;15471;51.166;4.470;2023-03-01T03:53:18;0.47;;;0.47;;
28188;SDS011;15471;51.166;4.470;2023-03-01T03:55:44;0.50;;;0.50;;
28188;SDS011;15471;51.166;4.470;2023-03-01T03:58:14;0.50;;;0.50;;
28188;SDS011;15471;51.166;4.470;2023-03-01T04:00:42;0.50;;;0.50;;
28188;SDS011;15471;51.166;4.470;2023-03-01T04:03:09;0.40;;;0.40;;
28188;SDS011;15471;51.166;4.470;2023-03-01T04:05:37;0.50;;;0.50;;
28188;SDS011;15471;51.166;4.470;2023-03-01T04:08:03;0.50;;;0.50;;
28188;SDS011;15471;51.166;4.470;2023-03-01T04:10:42;0.50;;;0.50;;
28188;SDS011;15471;51.166;4.470;2023-03-01T04:13:11;0.50;;;0.50;;
28188;SDS011;15471;51.166;4.470;2023-03-01T04:15:38;0.47;;;0.47;;
28188;SDS011;15471;51.166;4.470;2023-03-01T04:18:05;0.50;;;0.50;;
28188;SDS011;15471;51.166;4.470;2023-03-01T04:20:33;0.50;;;0.50;;
28188;SDS011;15471;51.166;4.470;2023-03-01T04:23:02;0.50;;;0.50;;
28188;SDS011;15471;51.166;4.470;2023-03-01T04:25:40;0.50;;;0.50;;
28188;SDS011;15471;51.166;4.470;2023-03-01T04:28:19;0.45;;;0.45;;
28188;SDS011;15471;51.166;4.470;2023-03-01T04:30:54;0.50;;;0.50;;
28188;SDS011;15471;51.166;4.470;2023-03-01T04:33:21;0.50;;;0.50;;
28188;SDS011;15471;51.166;4.470;2023-03-01T04:35:47;0.50;;;0.50;;
28188;SDS011;15471;51.166;4.470;2023-03-01T04:38:14;0.47;;;0.47;;
28188;SDS011;15471;51.166;4.470;2023-03-01T04:40:44;0.50;;;0.50;;
28188;SDS011;15471;51.166;4.470;2023-03-01T04:43:10;0.50;;;0.50;;
28188;SDS011;15471;51.166;4.470;2023-03-01T04:45:38;0.50;;;0.50;;
28188;SDS011;15471;51.166;4.470;2023-03-01T04:48:04;0.50;;;0.50;;
28188;SDS011;15471;51.166;4.470;2023-03-01T04:50:30;0.50;;;0.50;;
28188;SDS011;15471;51.166;4.470;2023-03-01T04:52:56;0.50;;;0.50;;
28188;SDS011;15471;51.166;4.470;2023-03-01T04:55:28;0.50;;;0.50;;
28188;SDS011;15471;51.166;4.470;2023-03-01T04:57:54;0.50;;;0.50;;
28188;SDS011;15471;51.166;4.470;2023-03-01T05:00:20;0.47;;;0.47;;
28188;SDS011;15471;51.166;4.470;2023-03-01T05:02:55;0.50;;;0.50;;
28188;SDS011;15471;51.166;4.470;2023-03-01T05:05:26;0.40;;;0.40;;
28188;SDS011;15471;51.166;4.470;2023-03-01T05:07:58;0.50;;;0.50;;
28188;SDS011;15471;51.166;4.470;2023-03-01T05:10:26;0.40;;;0.40;;
28188;SDS011;15471;51.166;4.470;2023-03-01T05:15:24;0.50;;;0.50;;
28188;SDS011;15471;51.166;4.470;2023-03-01T05:17:52;0.50;;;0.50;;
28188;SDS011;15471;51.166;4.470;2023-03-01T05:20:19;0.50;;;0.50;;
28188;SDS011;15471;51.166;4.470;2023-03-01T05:22:48;0.43;;;0.43;;
28188;SDS011;15471;51.166;4.470;2023-03-01T05:25:14;0.40;;;0.40;;
28188;SDS011;15471;51.166;4.470;2023-03-01T05:27:40;0.50;;;0.50;;
28188;SDS011;15471;51.166;4.470;2023-03-01T05:30:06;0.50;;;0.50;;
28188;SDS011;15471;51.166;4.470;2023-03-01T05:32:42;0.50;;;0.50;;
28188;SDS011;15471;51.166;4.470;2023-03-01T05:35:12;0.50;;;0.50;;
28188;SDS011;15471;51.166;4.470;2023-03-01T05:37:41;0.50;;;0.50;;
28188;SDS011;15471;51.166;4.470;2023-03-01T05:40:09;0.50;;;0.50;;
28188;SDS011;15471;51.166;4.470;2023-03-01T05:42:47;0.40;;;0.40;;
28188;SDS011;15471;51.166;4.470;2023-03-01T05:45:15;0.50;;;0.50;;
28188;SDS011;15471;51.166;4.470;2023-03-01T05:47:43;0.40;;;0.40;;
28188;SDS011;15471;51.166;4.470;2023-03-01T05:52:37;0.50;;;0.50;;
28188;SDS011;15471;51.166;4.470;2023-03-01T05:55:02;0.45;;;0.45;;
28188;SDS011;15471;51.166;4.470;2023-03-01T05:57:28;0.50;;;0.50;;
28188;SDS011;15471;51.166;4.470;2023-03-01T05:59:55;0.50;;;0.50;;
28188;SDS011;15471;51.166;4.470;2023-03-01T06:02:20;0.50;;;0.50;;
28188;SDS011;15471;51.166;4.470;2023-03-01T06:04:46;0.50;;;0.50;;
28188;SDS011;15471;51.166;4.470;2023-03-01T06:07:12;0.50;;;0.50;;
28188;SDS011;15471;51.166;4.470;2023-03-01T06:09:38;0.50;;;0.50;;
28188;SDS011;15471;51.166;4.470;2023-03-01T06:12:04;0.50;;;0.50;;
28188;SDS011;15471;51.166;4.470;2023-03-01T06:14:30;0.45;;;0.45;;
28188;SDS011;15471;51.166;4.470;2023-03-01T06:16:57;0.50;;;0.50;;
28188;SDS011;15471;51.166;4.470;2023-03-01T06:19:23;0.50;;;0.50;;
28188;SDS011;15471;51.166;4.470;2023-03-01T06:21:49;0.50;;;0.50;;
28188;SDS011;15471;51.166;4.470;2023-03-01T06:24:14;0.50;;;0.50;;
28188;SDS011;15471;51.166;4.470;2023-03-01T06:26:40;0.50;;;0.50;;
28188;SDS011;15471;51.166;4.470;2023-03-01T06:29:06;0.50;;;0.50;;
28188;SDS011;15471;51.166;4.470;2023-03-01T06:31:35;0.50;;;0.50;;
28188;SDS011;15471;51.166;4.470;2023-03-01T06:34:00;0.50;;;0.50;;
28188;SDS011;15471;51.166;4.470;2023-03-01T06:36:26;0.50;;;0.50;;
28188;SDS011;15471;51.166;4.470;2023-03-01T06:38:52;0.50;;;0.50;;
28188;SDS011;15471;51.166;4.470;2023-03-01T06:41:18;0.50;;;0.50;;
28188;SDS011;15471;51.166;4.470;2023-03-01T06:43:44;0.50;;;0.50;;
28188;SDS011;15471;51.166;4.470;2023-03-01T06:46:10;0.50;;;0.50;;
28188;SDS011;15471;51.166;4.470;2023-03-01T06:48:36;0.60;;;0.60;;
28188;SDS011;15471;51.166;4.470;2023-03-01T06:51:02;0.50;;;0.50;;
28188;SDS011;15471;51.166;4.470;2023-03-01T06:53:28;0.50;;;0.50;;
28188;SDS011;15471;51.166;4.470;2023-03-01T06:55:55;0.50;;;0.50;;
28188;SDS011;15471;51.166;4.470;2023-03-01T06:58:26;0.50;;;0.50;;
28188;SDS011;15471;51.166;4.470;2023-03-01T07:00:52;0.50;;;0.50;;
28188;SDS011;15471;51.166;4.470;2023-03-01T07:03:18;0.50;;;0.50;;
28188;SDS011;15471;51.166;4.470;2023-03-01T07:05:44;0.50;;;0.50;;
28188;SDS011;15471;51.166;4.470;2023-03-01T07:08:10;0.40;;;0.40;;
28188;SDS011;15471;51.166;4.470;2023-03-01T07:10:36;0.50;;;0.50;;
28188;SDS011;15471;51.166;4.470;2023-03-01T07:13:02;0.45;;;0.45;;
28188;SDS011;15471;51.166;4.470;2023-03-01T07:15:28;0.50;;;0.50;;
28188;SDS011;15471;51.166;4.470;2023-03-01T07:17:54;0.45;;;0.45;;
28188;SDS011;15471;51.166;4.470;2023-03-01T07:20:20;0.50;;;0.50;;
28188;SDS011;15471;51.166;4.470;2023-03-01T07:22:51;0.45;;;0.45;;
28188;SDS011;15471;51.166;4.470;2023-03-01T07:25:17;0.50;;;0.50;;
28188;SDS011;15471;51.166;4.470;2023-03-01T07:27:43;0.45;;;0.45;;
28188;SDS011;15471;51.166;4.470;2023-03-01T07:30:09;0.40;;;0.40;;
28188;SDS011;15471;51.166;4.470;2023-03-01T07:32:35;0.50;;;0.50;;
28188;SDS011;15471;51.166;4.470;2023-03-01T07:35:01;0.50;;;0.50;;
28188;SDS011;15471;51.166;4.470;2023-03-01T07:37:26;0.40;;;0.40;;
28188;SDS011;15471;51.166;4.470;2023-03-01T07:39:52;0.50;;;0.50;;
28188;SDS011;15471;51.166;4.470;2023-03-01T07:42:18;0.50;;;0.50;;
28188;SDS011;15471;51.166;4.470;2023-03-01T07:44:44;0.40;;;0.40;;
28188;SDS011;15471;51.166;4.470;2023-03-01T07:47:10;0.40;;;0.40;;
28188;SDS011;15471;51.166;4.470;2023-03-01T07:49:35;0.40;;;0.40;;
28188;SDS011;15471;51.166;4.470;2023-03-01T07:52:01;0.43;;;0.43;;
28188;SDS011;15471;51.166;4.470;2023-03-01T07:54:27;0.40;;;0.40;;
28188;SDS011;15471;51.166;4.470;2023-03-01T07:56:53;0.38;;;0.38;;
28188;SDS011;15471;51.166;4.470;2023-03-01T07:59:19;0.40;;;0.40;;
28188;SDS011;15471;51.166;4.470;2023-03-01T08:01:45;0.40;;;0.40;;
28188;SDS011;15471;51.166;4.470;2023-03-01T08:04:11;0.40;;;0.40;;
28188;SDS011;15471;51.166;4.470;2023-03-01T08:06:37;0.40;;;0.40;;
28188;SDS011;15471;51.166;4.470;2023-03-01T08:09:03;0.40;;;0.40;;
28188;SDS011;15471;51.166;4.470;2023-03-01T08:11:29;0.40;;;0.40;;
28188;SDS011;15471;51.166;4.470;2023-03-01T08:13:54;0.40;;;0.40;;
28188;SDS011;15471;51.166;4.470;2023-03-01T08:16:21;0.30;;;0.30;;
28188;SDS011;15471;51.166;4.470;2023-03-01T08:18:47;0.40;;;0.40;;
28188;SDS011;15471;51.166;4.470;2023-03-01T08:21:14;0.40;;;0.40;;
28188;SDS011;15471;51.166;4.470;2023-03-01T08:23:44;0.40;;;0.40;;
28188;SDS011;15471;51.166;4.470;2023-03-01T08:26:12;0.30;;;0.30;;
28188;SDS011;15471;51.166;4.470;2023-03-01T08:28:40;0.40;;;0.40;;
28188;SDS011;15471;51.166;4.470;2023-03-01T08:33:44;0.35;;;0.35;;
28188;SDS011;15471;51.166;4.470;2023-03-01T08:36:16;0.40;;;0.40;;
28188;SDS011;15471;51.166;4.470;2023-03-01T08:38:42;0.32;;;0.32;;
28188;SDS011;15471;51.166;4.470;2023-03-01T08:41:09;0.30;;;0.30;;
28188;SDS011;15471;51.166;4.470;2023-03-01T08:43:34;0.30;;;0.30;;
28188;SDS011;15471;51.166;4.470;2023-03-01T08:46:00;0.30;;;0.30;;
28188;SDS011;15471;51.166;4.470;2023-03-01T08:48:27;0.30;;;0.30;;
28188;SDS011;15471;51.166;4.470;2023-03-01T08:50:53;0.32;;;0.32;;
28188;SDS011;15471;51.166;4.470;2023-03-01T08:53:19;0.30;;;0.30;;
28188;SDS011;15471;51.166;4.470;2023-03-01T08:55:45;0.20;;;0.20;;
28188;SDS011;15471;51.166;4.470;2023-03-01T08:58:11;0.20;;;0.20;;
28188;SDS011;15471;51.166;4.470;2023-03-01T09:00:37;0.20;;;0.20;;
28188;SDS011;15471;51.166;4.470;2023-03-01T09:03:03;0.10;;;0.10;;
28188;SDS011;15471;51.166;4.470;2023-03-01T09:05:33;0.10;;;0.10;;
28188;SDS011;15471;51.166;4.470;2023-03-01T09:07:59;0.00;;;0.00;;
28188;SDS011;15471;51.166;4.470;2023-03-01T09:10:25;0.00;;;0.00;;
28188;SDS011;15471;51.166;4.470;2023-03-01T09:12:51;0.00;;;0.00;;
28188;SDS011;15471;51.166;4.470;2023-03-01T09:15:17;0.00;;;0.00;;
28188;SDS011;15471;51.166;4.470;2023-03-01T09:17:42;0.00;;;0.00;;
28188;SDS011;15471;51.166;4.470;2023-03-01T09:20:09;0.00;;;0.00;;
28188;SDS011;15471;51.166;4.470;2023-03-01T09:22:35;0.00;;;0.00;;
28188;SDS011;15471;51.166;4.470;2023-03-01T09:25:01;0.00;;;0.00;;
28188;SDS011;15471;51.166;4.470;2023-03-01T09:27:27;0.00;;;0.00;;
28188;SDS011;15471;51.166;4.470;2023-03-01T09:29:52;0.00;;;0.00;;
28188;SDS011;15471;51.166;4.470;2023-03-01T09:32:21;0.10;;;0.10;;
28188;SDS011;15471;51.166;4.470;2023-03-01T09:34:47;0.00;;;0.00;;
28188;SDS011;15471;51.166;4.470;2023-03-01T09:37:31;0.00;;;0.00;;
28188;SDS011;15471;51.166;4.470;2023-03-01T09:39:58;0.10;;;0.10;;
28188;SDS011;15471;51.166;4.470;2023-03-01T09:42:24;0.00;;;0.00;;
28188;SDS011;15471;51.166;4.470;2023-03-01T09:45:11;0.10;;;0.10;;
28188;SDS011;15471;51.166;4.470;2023-03-01T09:47:46;0.00;;;0.00;;
28188;SDS011;15471;51.166;4.470;2023-03-01T09:50:20;0.10;;;0.10;;
28188;SDS011;15471;51.166;4.470;2023-03-01T09:52:48;0.10;;;0.10;;
28188;SDS011;15471;51.166;4.470;2023-03-01T09:55:17;0.10;;;0.10;;
28188;SDS011;15471;51.166;4.470;2023-03-01T09:58:12;0.10;;;0.10;;
28188;SDS011;15471;51.166;4.470;2023-03-01T10:00:42;0.10;;;0.10;;
28188;SDS011;15471;51.166;4.470;2023-03-01T10:05:41;0.10;;;0.10;;
28188;SDS011;15471;51.166;4.470;2023-03-01T10:08:40;0.10;;;0.10;;
28188;SDS011;15471;51.166;4.470;2023-03-01T10:11:22;0.10;;;0.10;;
28188;SDS011;15471;51.166;4.470;2023-03-01T10:13:56;0.10;;;0.10;;
28188;SDS011;15471;51.166;4.470;2023-03-01T10:19:38;0.20;;;0.20;;
28188;SDS011;15471;51.166;4.470;2023-03-01T10:22:16;0.20;;;0.20;;
28188;SDS011;15471;51.166;4.470;2023-03-01T10:24:50;0.20;;;0.20;;
28188;SDS011;15471;51.166;4.470;2023-03-01T10:32:20;0.20;;;0.20;;
28188;SDS011;15471;51.166;4.470;2023-03-01T10:34:47;0.20;;;0.20;;
28188;SDS011;15471;51.166;4.470;2023-03-01T10:37:14;0.20;;;0.20;;
28188;SDS011;15471;51.166;4.470;2023-03-01T10:39:56;0.20;;;0.20;;
28188;SDS011;15471;51.166;4.470;2023-03-01T10:42:27;0.20;;;0.20;;
28188;SDS011;15471;51.166;4.470;2023-03-01T10:44:56;0.20;;;0.20;;
28188;SDS011;15471;51.166;4.470;2023-03-01T10:47:23;0.20;;;0.20;;
28188;SDS011;15471;51.166;4.470;2023-03-01T10:49:52;0.20;;;0.20;;
28188;SDS011;15471;51.166;4.470;2023-03-01T10:54:58;0.20;;;0.20;;
28188;SDS011;15471;51.166;4.470;2023-03-01T10:57:30;0.20;;;0.20;;
28188;SDS011;15471;51.166;4.470;2023-03-01T11:02:47;0.20;;;0.20;;
28188;SDS011;15471;51.166;4.470;2023-03-01T11:05:26;0.20;;;0.20;;
28188;SDS011;15471;51.166;4.470;2023-03-01T11:07:58;0.20;;;0.20;;
28188;SDS011;15471;51.166;4.470;2023-03-01T11:10:26;0.20;;;0.20;;
28188;SDS011;15471;51.166;4.470;2023-03-01T11:13:05;0.20;;;0.20;;
28188;SDS011;15471;51.166;4.470;2023-03-01T11:15:37;0.20;;;0.20;;
28188;SDS011;15471;51.166;4.470;2023-03-01T11:18:03;0.20;;;0.20;;
28188;SDS011;15471;51.166;4.470;2023-03-01T11:20:30;0.20;;;0.20;;
28188;SDS011;15471;51.166;4.470;2023-03-01T11:23:01;0.20;;;0.20;;
28188;SDS011;15471;51.166;4.470;2023-03-01T11:25:35;0.20;;;0.20;;
28188;SDS011;15471;51.166;4.470;2023-03-01T11:28:05;0.20;;;0.20;;
28188;SDS011;15471;51.166;4.470;2023-03-01T11:36:07;0.20;;;0.20;;
28188;SDS011;15471;51.166;4.470;2023-03-01T11:38:55;0.20;;;0.20;;
28188;SDS011;15471;51.166;4.470;2023-03-01T11:41:26;0.20;;;0.20;;
28188;SDS011;15471;51.166;4.470;2023-03-01T11:57:07;0.20;;;0.20;;
28188;SDS011;15471;51.166;4.470;2023-03-01T11:59:54;0.20;;;0.20;;
28188;SDS011;15471;51.166;4.470;2023-03-01T12:08:51;0.20;;;0.20;;
28188;SDS011;15471;51.166;4.470;2023-03-01T12:11:12;0.20;;;0.20;;
28188;SDS011;15471;51.166;4.470;2023-03-01T12:22:04;0.20;;;0.20;;
28188;SDS011;15471;51.166;4.470;2023-03-01T12:33:15;0.20;;;0.20;;
28188;SDS011;15471;51.166;4.470;2023-03-01T12:36:10;0.10;;;0.10;;
28188;SDS011;15471;51.166;4.470;2023-03-01T12:38:50;0.20;;;0.20;;
28188;SDS011;15471;51.166;4.470;2023-03-01T12:51:35;0.20;;;0.20;;
28188;SDS011;15471;51.166;4.470;2023-03-01T12:56:58;0.10;;;0.10;;
28188;SDS011;15471;51.166;4.470;2023-03-01T13:00:15;0.10;;;0.10;;
28188;SDS011;15471;51.166;4.470;2023-03-01T13:02:36;0.10;;;0.10;;
28188;SDS011;15471;51.166;4.470;2023-03-01T13:10:42;0.10;;;0.10;;
28188;SDS011;15471;51.166;4.470;2023-03-01T13:13:24;0.10;;;0.10;;
28188;SDS011;15471;51.166;4.470;2023-03-01T13:15:51;0.20;;;0.20;;
28188;SDS011;15471;51.166;4.470;2023-03-01T13:20:48;0.20;;;0.20;;
28188;SDS011;15471;51.166;4.470;2023-03-01T13:33:44;0.20;;;0.20;;
28188;SDS011;15471;51.166;4.470;2023-03-01T13:36:58;0.10;;;0.10;;
28188;SDS011;15471;51.166;4.470;2023-03-01T13:39:02;0.10;;;0.10;;
28188;SDS011;15471;51.166;4.470;2023-03-01T13:44:37;0.10;;;0.10;;
28188;SDS011;15471;51.166;4.470;2023-03-01T13:49:43;0.10;;;0.10;;
28188;SDS011;15471;51.166;4.470;2023-03-01T13:55:51;0.10;;;0.10;;
28188;SDS011;15471;51.166;4.470;2023-03-01T13:58:15;0.10;;;0.10;;
28188;SDS011;15471;51.166;4.470;2023-03-01T14:00:45;0.10;;;0.10;;
28188;SDS011;15471;51.166;4.470;2023-03-01T14:03:15;0.10;;;0.10;;
28188;SDS011;15471;51.166;4.470;2023-03-01T14:05:44;0.10;;;0.10;;
28188;SDS011;15471;51.166;4.470;2023-03-01T14:08:25;0.10;;;0.10;;
28188;SDS011;15471;51.166;4.470;2023-03-01T14:16:46;0.10;;;0.10;;
28188;SDS011;15471;51.166;4.470;2023-03-01T14:19:32;0.10;;;0.10;;
28188;SDS011;15471;51.166;4.470;2023-03-01T14:25:01;0.10;;;0.10;;
28188;SDS011;15471;51.166;4.470;2023-03-01T14:27:41;0.20;;;0.20;;
28188;SDS011;15471;51.166;4.470;2023-03-01T14:30:15;0.10;;;0.10;;
28188;SDS011;15471;51.166;4.470;2023-03-01T14:33:18;0.10;;;0.10;;
28188;SDS011;15471;51.166;4.470;2023-03-01T14:38:43;0.10;;;0.10;;
28188;SDS011;15471;51.166;4.470;2023-03-01T14:41:14;0.17;;;0.17;;
28188;SDS011;15471;51.166;4.470;2023-03-01T14:43:50;0.10;;;0.10;;
28188;SDS011;15471;51.166;4.470;2023-03-01T14:46:23;0.10;;;0.10;;
28188;SDS011;15471;51.166;4.470;2023-03-01T14:48:55;0.20;;;0.20;;
28188;SDS011;15471;51.166;4.470;2023-03-01T14:51:26;0.10;;;0.10;;
28188;SDS011;15471;51.166;4.470;2023-03-01T14:53:52;0.10;;;0.10;;
28188;SDS011;15471;51.166;4.470;2023-03-01T14:56:19;0.10;;;0.10;;
28188;SDS011;15471;51.166;4.470;2023-03-01T14:58:45;0.10;;;0.10;;
28188;SDS011;15471;51.166;4.470;2023-03-01T15:01:16;0.10;;;0.10;;
28188;SDS011;15471;51.166;4.470;2023-03-01T15:03:44;0.13;;;0.13;;
28188;SDS011;15471;51.166;4.470;2023-03-01T15:06:16;0.20;;;0.20;;
28188;SDS011;15471;51.166;4.470;2023-03-01T15:08:45;0.20;;;0.20;;
28188;SDS011;15471;51.166;4.470;2023-03-01T15:11:18;0.10;;;0.10;;
28188;SDS011;15471;51.166;4.470;2023-03-01T15:13:52;0.10;;;0.10;;
28188;SDS011;15471;51.166;4.470;2023-03-01T15:19:06;0.10;;;0.10;;
28188;SDS011;15471;51.166;4.470;2023-03-01T15:26:55;0.20;;;0.20;;
28188;SDS011;15471;51.166;4.470;2023-03-01T15:29:30;0.15;;;0.15;;
28188;SDS011;15471;51.166;4.470;2023-03-01T15:34:35;0.10;;;0.10;;
28188;SDS011;15471;51.166;4.470;2023-03-01T15:37:04;0.20;;;0.20;;
28188;SDS011;15471;51.166;4.470;2023-03-01T15:39:34;0.10;;;0.10;;
28188;SDS011;15471;51.166;4.470;2023-03-01T15:42:11;0.10;;;0.10;;
28188;SDS011;15471;51.166;4.470;2023-03-01T15:45:10;0.10;;;0.10;;
28188;SDS011;15471;51.166;4.470;2023-03-01T15:47:38;0.20;;;0.20;;
28188;SDS011;15471;51.166;4.470;2023-03-01T15:50:11;0.20;;;0.20;;
28188;SDS011;15471;51.166;4.470;2023-03-01T15:52:46;0.10;;;0.10;;
28188;SDS011;15471;51.166;4.470;2023-03-01T15:55:23;0.10;;;0.10;;
28188;SDS011;15471;51.166;4.470;2023-03-01T15:58:02;0.10;;;0.10;;
28188;SDS011;15471;51.166;4.470;2023-03-01T16:00:31;0.20;;;0.20;;
28188;SDS011;15471;51.166;4.470;2023-03-01T16:02:58;0.20;;;0.20;;
28188;SDS011;15471;51.166;4.470;2023-03-01T16:05:28;0.20;;;0.20;;
28188;SDS011;15471;51.166;4.470;2023-03-01T16:07:56;0.20;;;0.20;;
28188;SDS011;15471;51.166;4.470;2023-03-01T16:10:22;0.20;;;0.20;;
28188;SDS011;15471;51.166;4.470;2023-03-01T16:12:48;0.10;;;0.10;;
28188;SDS011;15471;51.166;4.470;2023-03-01T16:15:18;0.20;;;0.20;;
28188;SDS011;15471;51.166;4.470;2023-03-01T16:17:46;0.10;;;0.10;;
28188;SDS011;15471;51.166;4.470;2023-03-01T16:20:20;0.10;;;0.10;;
28188;SDS011;15471;51.166;4.470;2023-03-01T16:22:47;0.10;;;0.10;;
28188;SDS011;15471;51.166;4.470;2023-03-01T16:25:14;0.10;;;0.10;;
28188;SDS011;15471;51.166;4.470;2023-03-01T16:27:44;0.10;;;0.10;;
28188;SDS011;15471;51.166;4.470;2023-03-01T16:30:11;0.20;;;0.20;;
28188;SDS011;15471;51.166;4.470;2023-03-01T16:32:39;0.10;;;0.10;;
28188;SDS011;15471;51.166;4.470;2023-03-01T16:35:06;0.10;;;0.10;;
28188;SDS011;15471;51.166;4.470;2023-03-01T16:37:32;0.10;;;0.10;;
28188;SDS011;15471;51.166;4.470;2023-03-01T16:39:59;0.20;;;0.20;;
28188;SDS011;15471;51.166;4.470;2023-03-01T16:42:25;0.10;;;0.10;;
28188;SDS011;15471;51.166;4.470;2023-03-01T16:44:55;0.20;;;0.20;;
28188;SDS011;15471;51.166;4.470;2023-03-01T16:47:21;0.20;;;0.20;;
28188;SDS011;15471;51.166;4.470;2023-03-01T16:49:51;0.10;;;0.10;;
28188;SDS011;15471;51.166;4.470;2023-03-01T16:52:17;0.20;;;0.20;;
28188;SDS011;15471;51.166;4.470;2023-03-01T16:54:43;0.20;;;0.20;;
28188;SDS011;15471;51.166;4.470;2023-03-01T16:57:09;0.20;;;0.20;;
28188;SDS011;15471;51.166;4.470;2023-03-01T16:59:35;0.20;;;0.20;;
28188;SDS011;15471;51.166;4.470;2023-03-01T17:02:02;0.20;;;0.20;;
28188;SDS011;15471;51.166;4.470;2023-03-01T17:04:28;0.20;;;0.20;;
28188;SDS011;15471;51.166;4.470;2023-03-01T17:06:54;0.20;;;0.20;;
28188;SDS011;15471;51.166;4.470;2023-03-01T17:09:20;0.20;;;0.20;;
28188;SDS011;15471;51.166;4.470;2023-03-01T17:11:47;0.20;;;0.20;;
28188;SDS011;15471;51.166;4.470;2023-03-01T17:14:14;0.20;;;0.20;;
28188;SDS011;15471;51.166;4.470;2023-03-01T17:16:41;0.13;;;0.13;;
28188;SDS011;15471;51.166;4.470;2023-03-01T17:19:08;0.20;;;0.20;;
28188;SDS011;15471;51.166;4.470;2023-03-01T17:21:34;0.20;;;0.20;;
28188;SDS011;15471;51.166;4.470;2023-03-01T17:24:01;0.20;;;0.20;;
28188;SDS011;15471;51.166;4.470;2023-03-01T17:26:28;0.20;;;0.20;;